createdAt,value
2017-10-19T00:00:20.333Z,17.15
2017-10-19T00:01:24.775Z,16.83
2017-10-19T00:02:29.433Z,18.10
2017-10-19T00:03:33.845Z,17.73
2017-10-19T00:04:38.718Z,17.30
2017-10-19T00:05:43.158Z,16.45
2017-10-19T00:06:47.544Z,16.98
2017-10-19T00:07:51.996Z,18.30
2017-10-19T00:08:56.735Z,16.40
2017-10-19T00:10:01.209Z,18.65
2017-10-19T00:11:05.580Z,17.60
2017-10-19T00:12:10.766Z,18.70
2017-10-19T00:13:15.125Z,19.48
2017-10-19T00:14:19.474Z,18.67
2017-10-19T00:15:24.344Z,18.10
2017-10-19T00:16:29.506Z,18.40
2017-10-19T00:17:33.931Z,18.37
2017-10-19T00:18:38.305Z,17.50
2017-10-19T00:19:42.716Z,18.12
2017-10-19T00:20:47.212Z,18.52
2017-10-19T00:21:52.706Z,18.20
2017-10-19T00:22:57.154Z,18.87
2017-10-19T00:24:02.288Z,18.23
2017-10-19T00:25:06.669Z,17.87
2017-10-19T00:26:11.020Z,17.80
2017-10-19T00:27:15.358Z,17.25
2017-10-19T00:28:19.740Z,17.80
2017-10-19T00:29:24.127Z,19.70
2017-10-19T00:30:28.501Z,18.02
2017-10-19T00:31:32.938Z,18.17
2017-10-19T00:32:38.169Z,18.20
2017-10-19T00:33:43.317Z,19.20
2017-10-19T00:34:47.728Z,17.70
2017-10-19T00:35:52.088Z,17.55
2017-10-19T00:36:56.526Z,18.50
2017-10-19T00:38:01.706Z,18.75
2017-10-19T00:39:06.428Z,18.17
2017-10-19T00:40:10.804Z,18.10
2017-10-19T00:41:15.185Z,18.85
2017-10-19T00:42:20.353Z,18.83
2017-10-19T00:43:25.287Z,20.83
2017-10-19T00:44:29.806Z,20.75
2017-10-19T00:45:34.266Z,17.30
2017-10-19T00:46:38.737Z,18.85
2017-10-19T00:47:43.091Z,19.62
2017-10-19T00:48:55.421Z,18.62
2017-10-19T00:49:59.836Z,19.27
2017-10-19T00:51:04.549Z,20.25
2017-10-19T00:52:09.298Z,18.95
2017-10-19T00:53:13.634Z,18.83
2017-10-19T00:54:18.084Z,18.20
2017-10-19T00:55:22.595Z,18.65
2017-10-19T00:56:27.077Z,18.58
2017-10-19T00:57:31.429Z,19.30
2017-10-19T00:58:35.799Z,18.85
2017-10-19T00:59:40.477Z,19.90
2017-10-19T01:00:45.979Z,18.62
2017-10-19T01:01:51.012Z,18.98
2017-10-19T01:02:56.040Z,18.40
2017-10-19T01:04:00.419Z,18.95
2017-10-19T01:05:05.238Z,18.67
2017-10-19T01:06:09.702Z,18.27
2017-10-19T01:07:14.819Z,19.33
2017-10-19T01:08:19.181Z,19.42
2017-10-19T01:09:23.501Z,19.15
2017-10-19T01:10:28.136Z,19.15
2017-10-19T01:11:32.475Z,19.70
2017-10-19T01:12:37.581Z,18.45
2017-10-19T01:13:41.917Z,19.02
2017-10-19T01:14:47.017Z,21.35
2017-10-19T01:15:51.435Z,20.50
2017-10-19T01:16:56.536Z,20.73
2017-10-19T01:18:00.935Z,20.00
2017-10-19T01:19:05.302Z,22.52
2017-10-19T01:20:09.621Z,22.60
2017-10-19T01:21:14.099Z,22.67
2017-10-19T01:22:19.278Z,20.15
2017-10-19T01:23:23.639Z,21.05
2017-10-19T01:24:28.775Z,23.33
2017-10-19T01:25:34.380Z,23.62
2017-10-19T01:26:38.894Z,22.95
2017-10-19T01:27:43.368Z,22.30
2017-10-19T01:28:47.717Z,23.55
2017-10-19T01:29:52.890Z,23.60
2017-10-19T01:30:57.241Z,26.02
2017-10-19T01:32:02.474Z,25.42
2017-10-19T01:33:07.161Z,25.45
2017-10-19T01:34:11.630Z,26.40
2017-10-19T01:35:16.781Z,27.87
2017-10-19T01:36:21.240Z,27.02
2017-10-19T01:37:25.600Z,28.08
2017-10-19T01:38:29.965Z,26.15
2017-10-19T01:39:34.474Z,28.23
2017-10-19T01:40:39.184Z,26.55
2017-10-19T01:41:45.567Z,26.05
2017-10-19T01:42:52.307Z,29.15
2017-10-19T01:43:57.853Z,28.17
2017-10-19T01:45:05.059Z,26.40
2017-10-19T01:46:12.898Z,25.77
2017-10-19T01:47:23.078Z,28.73
2017-10-19T01:48:30.291Z,27.48
2017-10-19T01:49:44.373Z,28.80
2017-10-19T01:50:51.888Z,25.65
2017-10-19T01:51:58.546Z,29.15
2017-10-19T01:53:04.062Z,26.87
2017-10-19T01:54:10.457Z,26.33
2017-10-19T01:55:15.862Z,26.58
2017-10-19T01:56:25.149Z,27.10
2017-10-19T01:57:29.535Z,25.37
2017-10-19T01:58:34.172Z,26.55
2017-10-19T01:59:38.517Z,23.80
2017-10-19T02:00:45.110Z,27.77
2017-10-19T02:01:49.469Z,26.85
2017-10-19T02:02:54.586Z,25.95
2017-10-19T02:03:58.946Z,26.37
2017-10-19T02:05:03.339Z,24.55
2017-10-19T02:06:07.749Z,25.65
2017-10-19T02:07:12.547Z,26.27
2017-10-19T02:08:18.363Z,25.95
2017-10-19T02:09:23.705Z,23.83
2017-10-19T02:10:29.337Z,24.35
2017-10-19T02:11:34.226Z,24.98
2017-10-19T02:12:38.668Z,25.08
2017-10-19T02:13:43.032Z,25.58
2017-10-19T02:14:47.724Z,23.30
2017-10-19T02:15:52.901Z,24.58
2017-10-19T02:16:58.527Z,23.10
2017-10-19T02:18:03.363Z,24.55
2017-10-19T02:19:08.522Z,25.50
2017-10-19T02:20:13.051Z,25.10
2017-10-19T02:21:17.852Z,24.10
2017-10-19T02:22:23.152Z,24.30
2017-10-19T02:23:27.644Z,25.40
2017-10-19T02:24:32.301Z,24.50
2017-10-19T02:25:37.345Z,24.12
2017-10-19T02:26:42.840Z,23.48
2017-10-19T02:27:47.318Z,23.50
2017-10-19T02:28:51.848Z,25.35
2017-10-19T02:29:56.533Z,23.92
2017-10-19T02:31:01.486Z,23.92
2017-10-19T02:32:06.519Z,24.42
2017-10-19T02:33:11.520Z,22.48
2017-10-19T02:34:16.096Z,22.33
2017-10-19T02:35:22.399Z,23.77
2017-10-19T02:36:27.103Z,22.23
2017-10-19T02:37:32.191Z,23.70
2017-10-19T02:38:38.780Z,22.13
2017-10-19T02:39:43.892Z,22.90
2017-10-19T02:40:48.821Z,22.50
2017-10-19T02:41:53.973Z,23.08
2017-10-19T02:42:58.969Z,22.20
2017-10-19T02:44:05.363Z,21.65
2017-10-19T02:45:09.877Z,23.23
2017-10-19T02:46:14.366Z,22.05
2017-10-19T02:47:19.495Z,21.75
2017-10-19T02:48:24.434Z,21.52
2017-10-19T02:49:28.993Z,23.65
2017-10-19T02:50:34.307Z,25.02
2017-10-19T02:51:39.621Z,22.58
2017-10-19T02:52:44.096Z,22.90
2017-10-19T02:53:49.398Z,21.85
2017-10-19T02:54:54.638Z,24.00
2017-10-19T02:55:59.188Z,24.95
2017-10-19T02:57:03.862Z,23.45
2017-10-19T02:58:08.466Z,22.87
2017-10-19T02:59:13.990Z,21.35
2017-10-19T03:00:18.681Z,24.00
2017-10-19T03:01:23.035Z,23.85
2017-10-19T03:02:27.789Z,22.50
2017-10-19T03:03:32.294Z,23.38
2017-10-19T03:04:36.977Z,23.95
2017-10-19T03:05:41.327Z,22.13
2017-10-19T03:06:45.772Z,24.67
2017-10-19T03:07:51.600Z,22.90
2017-10-19T03:08:57.048Z,24.95
2017-10-19T03:10:02.286Z,22.30
2017-10-19T03:11:07.556Z,22.55
2017-10-19T03:12:12.226Z,21.10
2017-10-19T03:13:17.420Z,20.70
2017-10-19T03:14:21.957Z,22.75
2017-10-19T03:15:26.357Z,23.35
2017-10-19T03:16:31.054Z,22.10
2017-10-19T03:17:35.485Z,22.48
2017-10-19T03:18:40.169Z,21.33
2017-10-19T03:19:44.744Z,23.73
2017-10-19T03:20:49.494Z,20.95
2017-10-19T03:21:54.243Z,21.45
2017-10-19T03:22:58.596Z,22.33
2017-10-19T03:24:02.922Z,22.98
2017-10-19T03:25:07.288Z,22.15
2017-10-19T03:26:11.651Z,21.50
2017-10-19T03:27:16.038Z,22.10
2017-10-19T03:28:20.442Z,22.75
2017-10-19T03:29:24.795Z,22.10
2017-10-19T03:30:29.149Z,22.45
2017-10-19T03:31:34.282Z,24.98
2017-10-19T03:32:38.657Z,23.92
2017-10-19T03:33:43.002Z,24.27
2017-10-19T03:34:47.376Z,24.05
2017-10-19T03:35:52.574Z,24.30
2017-10-19T03:36:57.367Z,25.10
2017-10-19T03:38:02.165Z,24.10
2017-10-19T03:39:07.591Z,23.33
2017-10-19T03:40:12.740Z,23.40
2017-10-19T03:41:17.466Z,23.23
2017-10-19T03:42:21.872Z,24.42
2017-10-19T03:43:26.513Z,24.63
2017-10-19T03:44:30.875Z,26.50
2017-10-19T03:45:36.234Z,26.35
2017-10-19T03:46:40.687Z,25.50
2017-10-19T03:47:45.625Z,23.85
2017-10-19T03:48:51.068Z,25.48
2017-10-19T03:49:56.231Z,25.60
2017-10-19T03:51:02.374Z,24.25
2017-10-19T03:52:06.773Z,24.83
2017-10-19T03:53:11.188Z,24.60
2017-10-19T03:54:15.511Z,25.42
2017-10-19T03:55:20.277Z,26.02
2017-10-19T03:56:24.625Z,23.62
2017-10-19T03:57:29.002Z,24.63
2017-10-19T03:58:33.668Z,24.83
2017-10-19T03:59:38.431Z,24.50
2017-10-19T04:00:43.728Z,24.50
2017-10-19T04:01:48.126Z,24.98
2017-10-19T04:02:52.783Z,25.77
2017-10-19T04:03:57.230Z,25.85
2017-10-19T04:05:01.644Z,23.10
2017-10-19T04:06:06.090Z,25.00
2017-10-19T04:07:10.510Z,24.02
2017-10-19T04:08:14.846Z,25.85
2017-10-19T04:09:19.248Z,27.33
2017-10-19T04:10:24.376Z,26.12
2017-10-19T04:11:29.485Z,23.95
2017-10-19T04:12:34.382Z,26.75
2017-10-19T04:13:38.739Z,27.85
2017-10-19T04:14:43.853Z,26.05
2017-10-19T04:15:48.960Z,26.70
2017-10-19T04:16:53.911Z,27.80
2017-10-19T04:17:58.464Z,27.08
2017-10-19T04:19:02.823Z,27.73
2017-10-19T04:20:07.959Z,27.67
2017-10-19T04:21:12.414Z,26.92
2017-10-19T04:23:13.817Z,27.73
2017-10-19T04:24:18.988Z,27.13
2017-10-19T04:25:23.568Z,28.70
2017-10-19T04:26:27.964Z,27.45
2017-10-19T04:27:32.861Z,28.42
2017-10-19T04:28:37.932Z,28.38
2017-10-19T04:29:42.329Z,26.73
2017-10-19T04:30:46.819Z,26.85
2017-10-19T04:31:52.864Z,27.77
2017-10-19T04:32:58.385Z,25.60
2017-10-19T04:34:03.198Z,28.33
2017-10-19T04:35:07.587Z,34.97
2017-10-19T04:36:12.129Z,29.63
2017-10-19T04:37:16.653Z,25.10
2017-10-19T04:38:22.125Z,24.63
2017-10-19T04:39:26.637Z,24.95
2017-10-19T04:40:31.148Z,23.40
2017-10-19T04:41:35.734Z,24.55
2017-10-19T04:42:41.014Z,22.98
2017-10-19T04:43:45.429Z,24.00
2017-10-19T04:44:50.342Z,23.83
2017-10-19T04:45:54.742Z,24.48
2017-10-19T04:46:59.185Z,24.08
2017-10-19T04:48:03.660Z,23.98
2017-10-19T04:49:08.170Z,24.60
2017-10-19T04:50:13.062Z,24.23
2017-10-19T04:51:18.214Z,26.17
2017-10-19T04:52:22.647Z,25.15
2017-10-19T04:53:27.092Z,23.60
2017-10-19T04:54:32.297Z,23.77
2017-10-19T04:55:36.739Z,23.73
2017-10-19T04:56:41.921Z,24.55
2017-10-19T04:57:46.322Z,24.40
2017-10-19T04:58:50.741Z,26.45
2017-10-19T04:59:55.144Z,28.73
2017-10-19T05:01:00.184Z,28.10
2017-10-19T05:02:04.578Z,27.33
2017-10-19T05:03:09.630Z,26.52
2017-10-19T05:04:14.129Z,27.37
2017-10-19T05:05:18.551Z,32.72
2017-10-19T05:06:24.009Z,59.15
2017-10-19T05:07:31.055Z,96.07
2017-10-19T05:08:36.316Z,43.70
2017-10-19T05:09:42.126Z,31.67
2017-10-19T05:10:46.559Z,35.90
2017-10-19T05:11:51.688Z,33.53
2017-10-19T05:12:56.898Z,32.95
2017-10-19T05:14:01.410Z,30.40
2017-10-19T05:15:06.609Z,30.35
2017-10-19T05:16:11.072Z,31.50
2017-10-19T05:17:16.797Z,32.17
2017-10-19T05:18:21.991Z,30.30
2017-10-19T05:19:26.428Z,31.77
2017-10-19T05:20:32.366Z,30.85
2017-10-19T05:21:36.860Z,31.17
2017-10-19T05:22:41.301Z,32.22
2017-10-19T05:23:46.614Z,31.45
2017-10-19T05:24:50.997Z,34.95
2017-10-19T05:25:55.466Z,39.00
2017-10-19T05:27:00.663Z,37.80
2017-10-19T05:28:05.118Z,37.90
2017-10-19T05:29:09.578Z,40.03
2017-10-19T05:30:13.965Z,49.85
2017-10-19T05:31:18.559Z,63.35
2017-10-19T05:32:23.338Z,56.35
2017-10-19T05:33:28.814Z,48.55
2017-10-19T05:34:33.332Z,47.08
2017-10-19T05:35:37.770Z,44.08
2017-10-19T05:36:42.149Z,42.45
2017-10-19T05:37:46.640Z,43.83
2017-10-19T05:38:51.097Z,40.17
2017-10-19T05:39:55.634Z,43.85
2017-10-19T05:41:00.891Z,46.42
2017-10-19T05:42:05.436Z,43.97
2017-10-19T05:43:09.971Z,48.30
2017-10-19T05:44:14.465Z,48.45
2017-10-19T05:45:18.921Z,48.42
2017-10-19T05:46:24.209Z,49.05
2017-10-19T05:47:28.759Z,48.70
2017-10-19T05:48:34.110Z,47.92
2017-10-19T05:49:39.321Z,45.15
2017-10-19T05:50:43.869Z,45.97
2017-10-19T05:51:48.760Z,46.65
2017-10-19T05:52:53.985Z,45.50
2017-10-19T05:53:59.155Z,44.65
2017-10-19T05:55:03.534Z,41.97
2017-10-19T05:56:07.919Z,44.83
2017-10-19T05:57:12.586Z,44.80
2017-10-19T05:58:16.962Z,42.33
2017-10-19T05:59:23.054Z,42.40
2017-10-19T06:00:28.267Z,41.58
2017-10-19T06:01:33.977Z,43.13
2017-10-19T06:02:40.736Z,39.70
2017-10-19T06:03:46.879Z,38.78
2017-10-19T06:04:53.254Z,35.05
2017-10-19T06:05:59.445Z,35.85
2017-10-19T06:07:04.664Z,35.97
2017-10-19T06:08:10.889Z,34.88
2017-10-19T06:09:16.923Z,34.05
2017-10-19T06:10:22.412Z,31.08
2017-10-19T06:11:27.705Z,31.23
2017-10-19T06:12:34.370Z,30.95
2017-10-19T06:13:39.758Z,32.47
2017-10-19T06:14:46.453Z,29.10
2017-10-19T06:15:51.294Z,29.67
2017-10-19T06:16:55.845Z,27.67
2017-10-19T06:18:00.433Z,27.13
2017-10-19T06:19:05.905Z,28.70
2017-10-19T06:20:11.609Z,27.42
2017-10-19T06:21:16.058Z,28.83
2017-10-19T06:22:20.568Z,28.20
2017-10-19T06:23:26.163Z,27.58
2017-10-19T06:24:30.780Z,27.05
2017-10-19T06:25:35.250Z,28.20
2017-10-19T06:26:43.687Z,27.62
2017-10-19T06:27:49.867Z,26.35
2017-10-19T06:28:55.000Z,28.15
2017-10-19T06:30:01.629Z,28.17
2017-10-19T06:31:06.961Z,28.50
2017-10-19T06:32:12.382Z,29.08
2017-10-19T06:33:17.475Z,27.75
2017-10-19T06:34:23.424Z,27.52
2017-10-19T06:35:32.876Z,26.75
2017-10-19T06:36:38.197Z,26.05
2017-10-19T06:37:45.516Z,27.30
2017-10-19T06:38:51.417Z,25.67
2017-10-19T06:39:57.568Z,27.60
2017-10-19T06:41:05.256Z,27.42
2017-10-19T06:42:11.866Z,27.75
2017-10-19T06:43:17.090Z,27.48
2017-10-19T06:44:23.533Z,28.12
2017-10-19T06:45:28.876Z,27.87
2017-10-19T06:46:34.519Z,28.05
2017-10-19T06:47:41.190Z,26.77
2017-10-19T06:48:51.200Z,28.08
2017-10-19T06:49:57.672Z,26.30
2017-10-19T06:51:02.792Z,27.10
2017-10-19T06:52:07.369Z,26.33
2017-10-19T06:53:13.087Z,28.40
2017-10-19T06:54:17.556Z,27.33
2017-10-19T06:55:22.095Z,27.20
2017-10-19T06:56:26.834Z,25.85
2017-10-19T06:57:32.255Z,30.42
2017-10-19T06:58:38.146Z,47.15
2017-10-19T06:59:42.822Z,45.85
2017-10-19T07:00:48.143Z,34.10
2017-10-19T07:01:52.665Z,29.02
2017-10-19T07:02:57.329Z,28.60
2017-10-19T07:04:01.820Z,26.23
2017-10-19T07:05:06.342Z,26.25
2017-10-19T07:06:11.367Z,27.08
2017-10-19T07:07:17.753Z,24.90
2017-10-19T07:08:23.025Z,28.00
2017-10-19T07:09:29.550Z,28.67
2017-10-19T07:10:34.170Z,27.70
2017-10-19T07:11:39.479Z,27.33
2017-10-19T07:12:44.005Z,26.48
2017-10-19T07:13:48.636Z,26.50
2017-10-19T07:14:53.988Z,26.60
2017-10-19T07:15:59.315Z,28.48
2017-10-19T07:17:04.703Z,29.00
2017-10-19T07:18:09.297Z,27.67
2017-10-19T07:19:13.945Z,27.17
2017-10-19T07:20:18.782Z,28.73
2017-10-19T07:21:24.974Z,27.60
2017-10-19T07:22:29.511Z,27.87
2017-10-19T07:23:35.336Z,27.27
2017-10-19T07:24:40.669Z,27.90
2017-10-19T07:25:45.745Z,28.48
2017-10-19T07:26:50.639Z,29.80
2017-10-19T07:27:56.752Z,32.63
2017-10-19T07:29:01.410Z,30.17
2017-10-19T07:30:06.079Z,31.70
2017-10-19T07:31:10.978Z,31.02
2017-10-19T07:32:17.286Z,31.25
2017-10-19T07:33:22.846Z,33.65
2017-10-19T07:34:27.450Z,31.95
2017-10-19T07:35:33.155Z,31.52
2017-10-19T07:36:38.546Z,30.40
2017-10-19T07:37:43.174Z,43.28
2017-10-19T07:38:48.457Z,35.33
2017-10-19T07:39:53.333Z,31.20
2017-10-19T07:41:02.726Z,29.70
2017-10-19T07:42:07.531Z,28.23
2017-10-19T07:43:12.088Z,31.37
2017-10-19T07:44:17.364Z,29.40
2017-10-19T07:45:22.444Z,30.20
2017-10-19T07:47:14.008Z,31.12
2017-10-19T07:48:18.635Z,31.02
2017-10-19T07:49:23.311Z,30.98
2017-10-19T07:50:27.890Z,31.75
2017-10-19T07:51:33.127Z,30.40
2017-10-19T07:52:38.654Z,27.60
2017-10-19T07:53:44.645Z,28.73
2017-10-19T07:54:49.247Z,28.67
2017-10-19T07:55:53.981Z,29.35
2017-10-19T07:56:58.623Z,28.02
2017-10-19T07:58:03.139Z,30.58
2017-10-19T07:59:08.133Z,26.98
2017-10-19T08:00:13.685Z,27.37
2017-10-19T08:01:18.448Z,28.02
2017-10-19T08:02:24.066Z,29.35
2017-10-19T08:03:29.463Z,29.23
2017-10-19T08:04:34.122Z,26.25
2017-10-19T08:05:39.454Z,27.05
2017-10-19T08:06:44.800Z,26.75
2017-10-19T08:07:50.187Z,28.50
2017-10-19T08:08:54.670Z,27.65
2017-10-19T08:10:00.180Z,27.25
2017-10-19T08:11:04.816Z,25.10
2017-10-19T08:12:09.391Z,25.90
2017-10-19T08:13:14.841Z,27.52
2017-10-19T08:14:20.600Z,27.80
2017-10-19T08:15:25.074Z,28.30
2017-10-19T08:16:30.425Z,27.05
2017-10-19T08:17:35.608Z,23.65
2017-10-19T08:18:40.115Z,26.95
2017-10-19T08:19:44.625Z,25.45
2017-10-19T08:20:49.073Z,25.52
2017-10-19T08:21:54.334Z,26.98
2017-10-19T08:22:58.863Z,26.67
2017-10-19T08:24:04.334Z,26.45
2017-10-19T08:25:08.879Z,25.00
2017-10-19T08:26:13.744Z,24.40
2017-10-19T08:27:18.296Z,25.02
2017-10-19T08:28:24.035Z,25.88
2017-10-19T08:29:35.222Z,24.23
2017-10-19T08:30:39.850Z,24.20
2017-10-19T08:31:44.448Z,23.83
2017-10-19T08:32:49.047Z,23.05
2017-10-19T08:33:54.562Z,22.77
2017-10-19T08:34:59.444Z,25.23
2017-10-19T08:36:04.167Z,22.80
2017-10-19T08:37:09.111Z,23.48
2017-10-19T08:38:14.042Z,21.30
2017-10-19T08:39:18.723Z,23.95
2017-10-19T08:40:23.317Z,24.48
2017-10-19T08:41:27.990Z,23.05
2017-10-19T08:42:33.068Z,22.35
2017-10-19T08:43:38.507Z,21.58
2017-10-19T08:44:43.200Z,23.45
2017-10-19T08:45:48.452Z,23.40
2017-10-19T08:46:52.985Z,22.52
2017-10-19T08:47:57.852Z,24.08
2017-10-19T08:49:03.328Z,22.83
2017-10-19T08:50:07.966Z,22.17
2017-10-19T08:51:12.487Z,22.40
2017-10-19T08:52:17.180Z,23.20
2017-10-19T08:53:22.195Z,23.73
2017-10-19T08:54:26.716Z,22.13
2017-10-19T08:55:32.464Z,21.85
2017-10-19T08:56:37.886Z,21.17
2017-10-19T08:57:42.431Z,19.10
2017-10-19T08:58:47.435Z,20.60
2017-10-19T08:59:52.456Z,21.70
2017-10-19T09:00:57.956Z,22.10
2017-10-19T09:02:03.365Z,22.20
2017-10-19T09:03:11.401Z,23.02
2017-10-19T09:04:17.329Z,21.58
2017-10-19T09:05:23.407Z,20.88
2017-10-19T09:06:31.304Z,22.85
2017-10-19T09:07:35.761Z,21.62
2017-10-19T09:08:42.262Z,18.75
2017-10-19T09:09:48.457Z,21.23
2017-10-19T09:10:54.155Z,20.73
2017-10-19T09:11:58.750Z,20.00
2017-10-19T09:13:04.110Z,18.70
2017-10-19T09:14:12.016Z,18.27
2017-10-19T09:15:16.661Z,19.92
2017-10-19T09:16:21.920Z,20.70
2017-10-19T09:17:26.563Z,19.60
2017-10-19T09:18:31.220Z,20.02
2017-10-19T09:19:35.874Z,18.83
2017-10-19T09:20:41.898Z,19.23
2017-10-19T09:21:47.118Z,17.77
2017-10-19T09:22:51.615Z,20.25
2017-10-19T09:23:57.068Z,19.98
2017-10-19T09:25:01.660Z,18.23
2017-10-19T09:26:07.477Z,19.87
2017-10-19T09:27:12.031Z,21.42
2017-10-19T09:28:17.381Z,18.92
2017-10-19T09:29:21.870Z,18.83
2017-10-19T09:30:27.195Z,19.65
2017-10-19T09:31:32.434Z,18.80
2017-10-19T09:32:37.678Z,17.35
2017-10-19T09:33:42.105Z,18.67
2017-10-19T09:34:46.677Z,17.02
2017-10-19T09:35:51.962Z,17.10
2017-10-19T09:36:56.651Z,16.90
2017-10-19T09:38:01.501Z,16.95
2017-10-19T09:39:06.220Z,18.80
2017-10-19T09:40:10.798Z,17.17
2017-10-19T09:41:15.406Z,17.58
2017-10-19T09:42:19.959Z,18.20
2017-10-19T09:43:24.392Z,17.45
2017-10-19T09:44:28.913Z,18.90
2017-10-19T09:45:33.511Z,16.40
2017-10-19T09:46:38.107Z,17.40
2017-10-19T09:47:42.642Z,17.73
2017-10-19T09:48:47.274Z,17.05
2017-10-19T09:49:52.561Z,16.12
2017-10-19T09:50:57.112Z,16.87
2017-10-19T09:52:02.417Z,15.82
2017-10-19T09:53:06.938Z,16.92
2017-10-19T09:54:11.424Z,15.55
2017-10-19T09:55:16.331Z,16.33
2017-10-19T09:56:20.821Z,16.40
2017-10-19T09:57:25.382Z,16.02
2017-10-19T09:58:29.934Z,16.52
2017-10-19T09:59:35.587Z,14.55
2017-10-19T10:00:40.087Z,13.13
2017-10-19T10:01:45.471Z,13.82
2017-10-19T10:02:49.899Z,14.02
2017-10-19T10:03:54.346Z,13.40
2017-10-19T10:04:59.924Z,12.77
2017-10-19T10:06:04.486Z,12.13
2017-10-19T10:07:09.989Z,11.15
2017-10-19T10:08:14.462Z,12.35
2017-10-19T10:09:18.925Z,11.15
2017-10-19T10:10:23.550Z,15.30
2017-10-19T10:11:29.157Z,12.40
2017-10-19T10:12:34.170Z,13.82
2017-10-19T10:13:39.896Z,10.75
2017-10-19T10:14:44.433Z,11.50
2017-10-19T10:15:49.022Z,12.93
2017-10-19T10:16:55.638Z,12.07
2017-10-19T10:18:01.012Z,10.32
2017-10-19T10:19:06.165Z,11.57
2017-10-19T10:20:12.786Z,12.85
2017-10-19T10:21:19.039Z,11.32
2017-10-19T10:22:24.955Z,10.90
2017-10-19T10:23:30.840Z,19.23
2017-10-19T10:24:35.534Z,16.42
2017-10-19T10:25:40.972Z,31.33
2017-10-19T10:26:45.525Z,45.45
2017-10-19T10:27:50.081Z,37.42
2017-10-19T10:28:55.397Z,21.48
2017-10-19T10:29:59.926Z,39.97
2017-10-19T10:31:05.219Z,28.15
2017-10-19T10:32:10.046Z,21.92
2017-10-19T10:33:14.588Z,17.35
2017-10-19T10:34:20.396Z,20.90
2017-10-19T10:35:24.908Z,10.90
2017-10-19T10:36:29.544Z,10.85
2017-10-19T10:37:34.128Z,16.73
2017-10-19T10:38:38.797Z,9.80
2017-10-19T10:39:43.772Z,42.22
2017-10-19T10:40:48.374Z,15.25
2017-10-19T10:41:53.093Z,29.02
2017-10-19T10:42:57.649Z,35.42
2017-10-19T10:44:03.816Z,19.87
2017-10-19T10:45:08.478Z,15.90
2017-10-19T10:46:12.942Z,13.40
2017-10-19T10:47:18.264Z,10.10
2017-10-19T10:48:23.520Z,10.05
2017-10-19T10:49:28.101Z,37.67
2017-10-19T10:50:33.740Z,15.32
2017-10-19T10:51:39.010Z,11.55
2017-10-19T10:52:43.563Z,22.77
2017-10-19T10:53:48.910Z,16.83
2017-10-19T10:54:54.203Z,28.25
2017-10-19T10:55:59.354Z,14.10
2017-10-19T10:57:04.819Z,13.15
2017-10-19T10:58:10.051Z,12.45
2017-10-19T10:59:14.605Z,11.82
2017-10-19T11:00:19.214Z,19.08
2017-10-19T11:01:25.369Z,15.65
2017-10-19T11:02:30.000Z,13.27
2017-10-19T11:03:34.549Z,16.05
2017-10-19T11:04:39.891Z,11.25
2017-10-19T11:05:44.579Z,8.95
2017-10-19T11:06:49.564Z,10.40
2017-10-19T11:07:54.153Z,15.95
2017-10-19T11:08:58.743Z,23.25
2017-10-19T11:10:04.094Z,14.75
2017-10-19T11:11:08.630Z,21.40
2017-10-19T11:12:13.161Z,10.98
2017-10-19T11:13:17.715Z,21.48
2017-10-19T11:14:22.182Z,19.75
2017-10-19T11:15:26.690Z,18.55
2017-10-19T11:16:31.287Z,12.05
2017-10-19T11:17:35.844Z,11.40
2017-10-19T11:18:40.940Z,11.45
2017-10-19T11:19:45.458Z,10.75
2017-10-19T11:20:49.913Z,8.85
2017-10-19T11:21:54.406Z,9.73
2017-10-19T11:22:59.730Z,11.63
2017-10-19T11:24:04.645Z,8.55
2017-10-19T11:25:09.158Z,9.77
2017-10-19T11:26:13.649Z,11.20
2017-10-19T11:27:18.257Z,10.52
2017-10-19T11:28:22.750Z,11.82
2017-10-19T11:29:27.505Z,8.23
2017-10-19T11:30:32.079Z,7.75
2017-10-19T11:31:36.613Z,8.07
2017-10-19T11:32:41.391Z,8.05
2017-10-19T11:33:46.919Z,8.48
2017-10-19T11:34:51.539Z,11.50
2017-10-19T11:35:56.318Z,10.85
2017-10-19T11:37:00.924Z,11.10
2017-10-19T11:38:05.509Z,8.88
2017-10-19T11:39:10.152Z,9.15
2017-10-19T11:40:14.662Z,9.57
2017-10-19T11:41:19.639Z,10.50
2017-10-19T11:42:25.048Z,11.98
2017-10-19T11:43:30.486Z,10.75
2017-10-19T11:44:35.001Z,9.20
2017-10-19T11:45:40.266Z,9.02
2017-10-19T11:46:44.773Z,9.95
2017-10-19T11:47:49.429Z,9.02
2017-10-19T11:48:53.869Z,10.15
2017-10-19T11:49:59.273Z,15.30
2017-10-19T11:51:03.800Z,10.80
2017-10-19T11:52:09.546Z,8.43
2017-10-19T11:53:14.901Z,9.43
2017-10-19T11:54:20.205Z,9.88
2017-10-19T11:55:24.776Z,8.98
2017-10-19T11:56:29.422Z,9.85
2017-10-19T11:57:35.048Z,8.27
2017-10-19T11:58:40.150Z,9.13
2017-10-19T11:59:44.684Z,7.95
2017-10-19T12:00:49.378Z,9.70
2017-10-19T12:01:54.076Z,9.90
2017-10-19T12:02:58.659Z,8.00
2017-10-19T12:04:03.169Z,8.07
2017-10-19T12:05:07.711Z,9.38
2017-10-19T12:06:42.664Z,8.23
2017-10-19T12:07:47.281Z,8.60
2017-10-19T12:08:51.867Z,9.07
2017-10-19T12:09:56.484Z,10.00
2017-10-19T12:11:01.098Z,9.43
2017-10-19T12:12:05.659Z,9.60
2017-10-19T12:13:10.322Z,8.88
2017-10-19T12:14:14.886Z,8.15
2017-10-19T12:15:19.692Z,9.18
2017-10-19T12:16:24.195Z,6.95
2017-10-19T12:17:28.709Z,8.48
2017-10-19T12:18:33.237Z,8.48
2017-10-19T12:19:37.791Z,9.30
2017-10-19T12:20:43.501Z,8.75
2017-10-19T12:21:48.167Z,8.43
2017-10-19T12:22:52.640Z,8.10
2017-10-19T12:23:57.252Z,7.30
2017-10-19T12:25:01.830Z,7.62
2017-10-19T12:26:26.838Z,8.32
2017-10-19T12:27:32.465Z,7.72
2017-10-19T12:28:37.172Z,7.55
2017-10-19T12:29:42.476Z,9.02
2017-10-19T12:30:47.350Z,8.48
2017-10-19T12:31:52.505Z,17.00
2017-10-19T12:32:58.085Z,10.00
2017-10-19T12:34:02.756Z,8.90
2017-10-19T12:35:08.100Z,7.80
2017-10-19T12:36:12.766Z,8.27
2017-10-19T12:37:21.899Z,9.43
2017-10-19T12:38:26.553Z,17.85
2017-10-19T12:39:32.061Z,9.57
2017-10-19T12:40:36.711Z,8.30
2017-10-19T12:41:41.367Z,7.90
2017-10-19T12:42:46.105Z,8.90
2017-10-19T12:43:52.322Z,7.30
2017-10-19T12:44:56.912Z,7.40
2017-10-19T12:46:01.574Z,7.35
2017-10-19T12:47:06.318Z,8.63
2017-10-19T12:48:11.685Z,7.93
2017-10-19T12:49:16.235Z,7.93
2017-10-19T12:50:20.894Z,7.72
2017-10-19T12:51:26.186Z,12.57
2017-10-19T12:52:31.368Z,13.45
2017-10-19T12:53:35.990Z,22.15
2017-10-19T12:54:41.018Z,14.80
2017-10-19T12:55:46.349Z,25.62
2017-10-19T12:56:50.955Z,17.20
2017-10-19T12:57:55.463Z,11.05
2017-10-19T12:59:00.071Z,16.90
2017-10-19T13:00:05.000Z,25.65
2017-10-19T13:01:09.589Z,40.10
2017-10-19T13:02:14.164Z,18.25
2017-10-19T13:03:18.665Z,21.77
2017-10-19T13:04:23.242Z,9.20
2017-10-19T13:05:27.802Z,15.05
2017-10-19T13:06:32.409Z,17.65
2017-10-19T13:07:37.065Z,12.32
2017-10-19T13:08:41.697Z,38.67
2017-10-19T13:09:46.166Z,45.03
2017-10-19T13:10:51.106Z,42.90
2017-10-19T13:11:56.412Z,25.77
2017-10-19T13:13:00.957Z,26.12
2017-10-19T13:14:06.976Z,30.98
2017-10-19T13:15:12.051Z,24.67
2017-10-19T13:16:17.169Z,16.50
2017-10-19T13:17:21.988Z,26.90
2017-10-19T13:18:26.546Z,17.98
2017-10-19T13:19:31.302Z,12.13
2017-10-19T13:20:36.804Z,17.40
2017-10-19T13:21:41.401Z,10.48
2017-10-19T13:22:46.072Z,12.35
2017-10-19T13:23:50.702Z,10.10
2017-10-19T13:24:55.351Z,10.63
2017-10-19T13:25:59.929Z,15.95
2017-10-19T13:27:04.692Z,16.70
2017-10-19T13:28:09.173Z,17.20
2017-10-19T13:29:13.848Z,17.87
2017-10-19T13:30:19.099Z,12.73
2017-10-19T13:31:23.900Z,15.35
2017-10-19T13:32:29.329Z,11.60
2017-10-19T13:33:37.196Z,23.00
2017-10-19T13:34:41.741Z,53.08
2017-10-19T13:35:47.019Z,31.10
2017-10-19T13:36:51.618Z,15.25
2017-10-19T13:37:56.300Z,16.20
2017-10-19T13:39:00.824Z,45.58
2017-10-19T13:40:06.261Z,50.38
2017-10-19T13:41:11.468Z,95.10
2017-10-19T13:42:16.827Z,92.12
2017-10-19T13:43:21.650Z,96.97
2017-10-19T13:44:27.325Z,86.95
2017-10-19T13:45:32.734Z,64.68
2017-10-19T13:46:38.368Z,106.47
2017-10-19T13:47:42.859Z,102.50
2017-10-19T13:48:48.456Z,78.35
2017-10-19T13:49:53.007Z,66.55
2017-10-19T13:50:58.368Z,41.08
2017-10-19T13:52:02.874Z,67.50
2017-10-19T13:53:07.414Z,64.90
2017-10-19T13:54:12.122Z,66.70
2017-10-19T13:55:16.770Z,86.07
2017-10-19T13:56:21.907Z,29.67
2017-10-19T13:57:26.594Z,51.60
2017-10-19T13:58:31.099Z,46.08
2017-10-19T13:59:36.587Z,19.12
2017-10-19T14:00:42.162Z,81.10
2017-10-19T14:01:47.863Z,23.92